Time;durP1;ratioP1;P1;durP2;ratioP2;P2;SDS_P1;SDS_P2;PMS_P1;PMS_P2;Temp;Humidity;BMP_temperature;BMP_pressure;BME280_temperature;BME280_humidity;BME280_pressure;Samples;Min_cycle;Max_cycle;Signal;HPM_P1;HPM_P2
2023/10/30 00:00:38;;;;;;;4.50;1.15;;;;;;;20.07;48.12;99695.22;5016835;28;20053;-62
2023/10/30 00:03:04;;;;;;;8.07;1.27;;;;;;;20.02;48.25;99698.59;5033978;28;20052;-62
2023/10/30 00:05:29;;;;;;;5.35;1.67;;;;;;;20.05;47.86;99698.16;5033723;28;20037;-62
2023/10/30 00:07:55;;;;;;;4.95;1.10;;;;;;;20.01;48.37;99702.38;5033494;28;20502;-62
2023/10/30 00:10:21;;;;;;;10.07;1.38;;;;;;;20.00;48.67;99700.69;5032997;28;20033;-63
2023/10/30 00:12:47;;;;;;;5.97;1.20;;;;;;;20.01;48.20;99713.25;5034251;28;20029;-62
2023/10/30 00:15:12;;;;;;;3.03;0.85;;;;;;;19.99;48.26;99712.59;5034247;28;20030;-62
2023/10/30 00:17:38;;;;;;;5.70;1.30;;;;;;;19.98;48.33;99716.41;5032730;28;20516;-63
2023/10/30 00:20:05;;;;;;;6.95;1.13;;;;;;;20.00;48.59;99721.59;5016101;28;20497;-63
2023/10/30 00:22:31;;;;;;;2.92;1.20;;;;;;;19.97;49.06;99708.44;5032834;28;20034;-62
2023/10/30 00:24:56;;;;;;;7.80;1.20;;;;;;;19.96;48.89;99710.31;5032629;28;20037;-62
2023/10/30 00:27:22;;;;;;;6.65;0.98;;;;;;;19.96;48.80;99726.63;5033173;28;20034;-62
2023/10/30 00:29:47;;;;;;;12.38;1.05;;;;;;;19.97;48.75;99733.75;5031880;28;22074;-64
2023/10/30 00:32:13;;;;;;;4.72;1.38;;;;;;;19.96;48.53;99729.34;5032954;28;20017;-63
2023/10/30 00:34:39;;;;;;;4.93;1.08;;;;;;;19.95;48.67;99733.16;5032769;28;20055;-63
2023/10/30 00:37:04;;;;;;;7.65;1.40;;;;;;;19.97;49.13;99731.03;5032796;28;20052;-62
2023/10/30 00:39:32;;;;;;;6.57;1.05;;;;;;;20.00;48.63;99738.75;5015890;28;20049;-63
2023/10/30 00:42:00;;;;;;;9.38;1.85;;;;;;;19.99;48.92;99745.22;5032500;28;20592;-63
2023/10/30 00:44:26;;;;;;;8.27;1.50;;;;;;;19.98;48.59;99740.88;5033637;28;20021;-62
2023/10/30 00:46:53;;;;;;;8.00;1.60;;;;;;;19.99;48.68;99752.59;5033804;28;20025;-62
2023/10/30 00:49:18;;;;;;;4.63;1.05;;;;;;;19.98;49.18;99762.63;5033535;28;20028;-62
2023/10/30 00:51:44;;;;;;;3.30;1.42;;;;;;;19.93;48.89;99754.28;5032422;28;20100;-62
2023/10/30 00:54:11;;;;;;;9.10;3.22;;;;;;;19.93;48.44;99754.28;5033513;28;20017;-63
2023/10/30 00:56:36;;;;;;;12.73;1.65;;;;;;;19.93;48.70;99761.59;5023831;28;20111;-62
2023/10/30 00:59:01;;;;;;;7.88;1.40;;;;;;;19.93;48.97;99762.44;5032212;28;20076;-62
2023/10/30 01:01:27;;;;;;;4.97;1.55;;;;;;;19.93;48.63;99762.44;5033093;28;20021;-63
2023/10/30 01:03:52;;;;;;;6.13;2.08;;;;;;;19.92;48.88;99763.47;5032073;28;20053;-62
2023/10/30 01:06:18;;;;;;;10.43;1.35;;;;;;;19.90;49.51;99760.16;5032124;28;20072;-62
2023/10/30 01:08:43;;;;;;;6.05;2.17;;;;;;;19.90;49.05;99768.31;5032386;28;20034;-62
2023/10/30 01:11:09;;;;;;;3.28;1.17;;;;;;;19.91;48.90;99775.38;5032368;28;20032;-62
2023/10/30 01:13:36;;;;;;;9.02;2.10;;;;;;;19.91;48.86;99769.94;5031684;28;20470;-62
2023/10/30 01:16:02;;;;;;;7.00;1.30;;;;;;;19.95;48.71;99773.06;5033171;28;20025;-62
2023/10/30 01:18:27;;;;;;;7.82;1.60;;;;;;;19.93;48.47;99769.75;5033145;28;20608;-63
2023/10/30 01:20:53;;;;;;;3.67;2.35;;;;;;;19.95;48.39;99776.63;5015364;28;20382;-62
2023/10/30 01:23:18;;;;;;;5.30;1.17;;;;;;;19.97;48.34;99771.81;5015163;28;20374;-62
2023/10/30 01:25:47;;;;;;;7.90;1.50;;;;;;;19.97;48.56;99774.53;5033011;28;20033;-62
2023/10/30 01:28:12;;;;;;;8.93;1.50;;;;;;;19.98;48.69;99768.06;5030659;28;20092;-62
2023/10/30 01:30:37;;;;;;;4.75;1.00;;;;;;;19.96;48.99;99775.56;5031557;28;20029;-62
2023/10/30 01:33:03;;;;;;;8.55;1.77;;;;;;;19.99;48.39;99769.69;5032683;28;20355;-62
2023/10/30 01:35:28;;;;;;;5.40;0.90;;;;;;;19.99;48.27;99769.69;5031657;28;20058;-62
2023/10/30 01:37:54;;;;;;;14.30;1.17;;;;;;;20.01;48.82;99778.50;5032984;28;20138;-62
2023/10/30 01:40:19;;;;;;;6.25;1.27;;;;;;;20.00;48.84;99774.09;5015035;28;20105;-62
2023/10/30 01:42:45;;;;;;;5.47;1.67;;;;;;;19.99;48.62;99775.13;5031657;28;20033;-62
2023/10/30 01:45:10;;;;;;;8.50;1.30;;;;;;;19.98;48.52;99784.38;5014896;28;20041;-63
2023/10/30 01:47:37;;;;;;;4.93;1.00;;;;;;;19.99;48.69;99777.06;5031610;28;20048;-62
2023/10/30 01:50:02;;;;;;;6.50;1.05;;;;;;;19.94;48.24;99771.41;5031450;28;20089;-62
2023/10/30 01:52:29;;;;;;;4.63;0.80;;;;;;;19.97;48.69;99776.41;5031580;28;20152;-62
2023/10/30 01:54:55;;;;;;;10.32;1.27;;;;;;;19.93;48.50;99765.16;5015100;28;20040;-62
2023/10/30 01:57:22;;;;;;;6.55;1.35;;;;;;;19.92;48.69;99774.34;5032679;28;20022;-62
2023/10/30 01:59:49;;;;;;;4.90;0.85;;;;;;;19.87;48.65;99766.00;5031511;28;20039;-62
2023/10/30 02:02:15;;;;;;;6.45;0.93;;;;;;;19.89;48.55;99772.06;5032467;28;20072;-62
2023/10/30 02:04:40;;;;;;;3.65;0.70;;;;;;;19.88;48.61;99772.28;5015147;28;20495;-62
2023/10/30 02:07:05;;;;;;;2.58;0.45;;;;;;;19.87;48.46;99760.56;5032605;28;20021;-62
2023/10/30 02:09:32;;;;;;;12.57;0.98;;;;;;;19.87;48.78;99766.00;5031179;28;20033;-63
2023/10/30 02:11:58;;;;;;;4.18;0.80;;;;;;;19.88;48.63;99777.72;5031479;28;20053;-63
2023/10/30 02:14:23;;;;;;;6.10;1.05;;;;;;;19.87;48.41;99776.88;5032417;28;20041;-63
2023/10/30 02:16:49;;;;;;;11.88;0.77;;;;;;;19.89;48.49;99785.66;5014804;28;20053;-63
2023/10/30 02:19:22;;;;;;;10.20;1.13;;;;;;;19.91;48.85;99782.69;5014283;28;20037;-63
2023/10/30 02:21:48;;;;;;;11.35;0.93;;;;;;;19.89;48.41;99784.81;5031468;28;20021;-62
2023/10/30 02:24:14;;;;;;;2.70;0.77;;;;;;;19.87;48.12;99776.03;5031680;28;20033;-63
2023/10/30 02:26:39;;;;;;;9.43;1.23;;;;;;;19.90;48.26;99776.47;5034447;28;20041;-63
2023/10/30 02:29:05;;;;;;;2.67;0.80;;;;;;;19.87;48.77;99771.44;5035783;28;20057;-63
2023/10/30 02:31:32;;;;;;;3.92;1.05;;;;;;;19.87;49.07;99776.88;5035811;28;20090;-62
2023/10/30 02:33:59;;;;;;;1.95;0.63;;;;;;;19.89;48.87;99758.47;5036838;28;20505;-62
2023/10/30 02:36:25;;;;;;;8.40;1.02;;;;;;;19.86;48.34;99750.75;5036066;28;20033;-62
2023/10/30 02:38:50;;;;;;;7.05;0.90;;;;;;;19.85;48.49;99759.94;5018231;28;20029;-63
2023/10/30 02:41:15;;;;;;;7.03;1.08;;;;;;;19.85;48.68;99767.28;5018298;28;20397;-62
2023/10/30 02:43:42;;;;;;;3.50;0.90;;;;;;;19.83;48.32;99764.75;5018032;28;20076;-62
2023/10/30 02:46:07;;;;;;;5.60;1.45;;;;;;;19.82;48.78;99763.06;5036124;28;20461;-62
2023/10/30 02:48:33;;;;;;;8.40;1.10;;;;;;;19.81;48.70;99749.72;5033625;28;20071;-62
2023/10/30 02:50:58;;;;;;;13.45;1.35;;;;;;;19.81;48.60;99756.00;5034515;28;20535;-63
2023/10/30 02:53:24;;;;;;;6.03;1.95;;;;;;;19.79;48.95;99749.94;5035638;28;20037;-62
2023/10/30 02:55:49;;;;;;;4.60;1.23;;;;;;;19.78;48.89;99745.56;5017959;28;20524;-62
2023/10/30 02:58:16;;;;;;;7.60;0.93;;;;;;;19.76;48.75;99740.31;5034499;28;20481;-63
2023/10/30 03:00:41;;;;;;;8.43;1.08;;;;;;;19.78;48.67;99748.28;5034457;28;20050;-62
2023/10/30 03:03:06;;;;;;;8.70;2.35;;;;;;;19.81;49.00;99750.56;5034172;28;20536;-62
2023/10/30 03:05:33;;;;;;;3.75;0.75;;;;;;;19.80;48.62;99739.88;5017846;28;20032;-63
2023/10/30 03:07:58;;;;;;;7.32;1.23;;;;;;;19.81;49.13;99744.28;5035643;28;20034;-63
2023/10/30 03:10:24;;;;;;;3.97;0.93;;;;;;;19.77;48.47;99735.72;5035570;28;20517;-62
2023/10/30 03:12:49;;;;;;;4.07;0.90;;;;;;;19.76;49.18;99731.34;5034265;28;20040;-62
2023/10/30 03:15:14;;;;;;;2.05;0.60;;;;;;;19.80;48.46;99743.44;5035502;28;20034;-62
2023/10/30 03:17:40;;;;;;;8.88;0.68;;;;;;;19.79;48.48;99747.22;5017490;28;20037;-63
2023/10/30 03:20:08;;;;;;;3.92;0.77;;;;;;;19.80;48.84;99743.44;5033591;28;20045;-63
2023/10/30 03:22:34;;;;;;;3.47;0.88;;;;;;;19.79;48.39;99735.53;5035003;28;20056;-62
2023/10/30 03:24:59;;;;;;;3.05;1.10;;;;;;;19.80;48.26;99739.88;5033981;28;20038;-62
2023/10/30 03:27:25;;;;;;;4.45;1.20;;;;;;;19.76;48.97;99739.50;5033961;28;20034;-62
2023/10/30 03:29:51;;;;;;;3.22;0.98;;;;;;;19.73;48.31;99742.66;5017302;28;20044;-62
2023/10/30 03:32:16;;;;;;;5.03;0.93;;;;;;;19.72;48.74;99746.41;5033872;28;20400;-62
2023/10/30 03:34:42;;;;;;;7.78;0.52;;;;;;;19.75;48.70;99748.69;5033375;28;20034;-62
2023/10/30 03:37:08;;;;;;;9.30;1.05;;;;;;;19.73;49.26;99750.81;5034831;28;20120;-62
2023/10/30 03:39:34;;;;;;;5.50;0.98;;;;;;;19.73;48.68;99748.09;5017231;28;20501;-63
2023/10/30 03:41:59;;;;;;;9.77;0.82;;;;;;;19.72;48.76;99752.69;5017074;28;20034;-62
2023/10/30 03:44:26;;;;;;;5.80;0.90;;;;;;;19.70;48.66;99751.22;5034823;28;20029;-63
2023/10/30 03:46:52;;;;;;;3.58;0.93;;;;;;;19.70;48.48;99756.66;5034838;28;20049;-63
2023/10/30 03:49:17;;;;;;;13.45;1.02;;;;;;;19.69;48.67;99757.69;5033239;28;20037;-63
2023/10/30 03:51:43;;;;;;;11.13;1.08;;;;;;;19.70;48.62;99764.81;5033687;28;20432;-63
2023/10/30 03:54:09;;;;;;;7.32;0.88;;;;;;;19.71;48.55;99769.19;5034712;28;20041;-62
2023/10/30 03:56:34;;;;;;;2.13;0.80;;;;;;;19.71;48.91;99766.47;5033217;28;20076;-63
2023/10/30 03:58:59;;;;;;;6.25;1.48;;;;;;;19.72;49.03;99768.16;5034753;28;20377;-64
2023/10/30 04:01:26;;;;;;;8.15;1.13;;;;;;;19.70;48.94;99764.81;5034448;28;20405;-63
2023/10/30 04:03:53;;;;;;;5.50;1.15;;;;;;;19.67;48.23;99754.38;5032858;28;20064;-63
2023/10/30 04:06:18;;;;;;;4.80;1.15;;;;;;;19.67;48.89;99757.94;5016569;28;20095;-63
2023/10/30 04:08:44;;;;;;;7.95;1.30;;;;;;;19.65;48.88;99754.56;5033354;28;20116;-63
2023/10/30 04:11:11;;;;;;;6.45;1.40;;;;;;;19.66;48.60;99753.53;5033114;28;20034;-63
2023/10/30 04:13:37;;;;;;;3.13;0.40;;;;;;;19.63;48.90;99753.13;5016494;28;20445;-63
2023/10/30 04:16:03;;;;;;;6.45;1.75;;;;;;;19.65;48.90;99751.84;5033044;28;20140;-63
2023/10/30 04:18:28;;;;;;;4.88;1.33;;;;;;;19.63;48.71;99753.13;5032804;28;20033;-63
2023/10/30 04:20:55;;;;;;;3.60;1.25;;;;;;;19.58;48.82;99750.22;5016245;28;20040;-63
2023/10/30 04:23:21;;;;;;;3.30;1.00;;;;;;;19.59;48.56;99741.03;5034021;28;20042;-63
2023/10/30 04:25:47;;;;;;;7.65;0.88;;;;;;;19.60;49.33;99745.38;5016228;28;20045;-63
2023/10/30 04:28:12;;;;;;;5.78;1.17;;;;;;;19.61;48.79;99738.91;5034076;28;20099;-63
2023/10/30 04:30:38;;;;;;;5.55;1.02;;;;;;;19.66;48.77;99745.38;5033987;28;20500;-64
2023/10/30 04:33:03;;;;;;;8.40;1.05;;;;;;;19.66;48.87;99748.09;5016175;28;20030;-63
2023/10/30 04:35:29;;;;;;;3.70;1.23;;;;;;;19.71;48.66;99750.16;5033112;28;20394;-63
2023/10/30 04:37:55;;;;;;;9.32;2.28;;;;;;;19.72;48.94;99752.69;5032969;28;20041;-63
2023/10/30 04:40:20;;;;;;;2.85;0.70;;;;;;;19.71;49.26;99753.72;5034143;28;20546;-63
2023/10/30 04:42:46;;;;;;;9.15;1.08;;;;;;;19.72;48.60;99757.28;5032676;28;20398;-63
2023/10/30 04:45:12;;;;;;;3.17;0.95;;;;;;;19.72;48.43;99765.44;5033769;28;20091;-64
2023/10/30 04:47:37;;;;;;;8.98;1.15;;;;;;;19.68;48.22;99761.47;5033151;28;20409;-63
2023/10/30 04:50:02;;;;;;;7.00;0.90;;;;;;;19.71;48.74;99761.03;5032546;28;20099;-64
2023/10/30 04:52:29;;;;;;;8.70;1.20;;;;;;;19.69;48.37;99768.56;5033613;28;20034;-64
2023/10/30 04:54:54;;;;;;;6.22;1.95;;;;;;;19.68;49.36;99767.72;5032441;28;20563;-63
2023/10/30 04:57:19;;;;;;;4.45;1.25;;;;;;;19.67;48.75;99754.38;5033613;28;20037;-63
2023/10/30 04:59:45;;;;;;;4.57;1.05;;;;;;;19.64;48.67;99754.78;5032160;28;20078;-64
2023/10/30 05:02:11;;;;;;;7.82;1.73;;;;;;;19.66;48.59;99758.97;5011656;28;20124;-63
2023/10/30 05:04:36;;;;;;;14.73;1.73;;;;;;;19.65;49.11;99770.88;5029811;28;20091;-63
2023/10/30 05:07:04;;;;;;;5.88;0.98;;;;;;;19.61;48.98;99749.78;5032212;28;20405;-62
2023/10/30 05:09:29;;;;;;;5.97;1.70;;;;;;;19.62;48.64;99759.63;5033257;28;20087;-62
2023/10/30 05:11:55;;;;;;;10.38;1.52;;;;;;;19.63;48.35;99761.25;5033301;28;20033;-62
2023/10/30 05:14:20;;;;;;;6.68;1.00;;;;;;;19.59;48.84;99747.28;5011060;28;20041;-62
2023/10/30 05:16:46;;;;;;;9.13;1.25;;;;;;;19.58;48.93;99755.66;5030126;28;20041;-62
2023/10/30 05:19:11;;;;;;;4.72;1.20;;;;;;;19.59;48.74;99751.91;5010805;28;20520;-62
2023/10/30 05:21:36;;;;;;;3.80;0.82;;;;;;;19.57;48.85;99754.00;5013972;28;20509;-62
2023/10/30 05:24:02;;;;;;;6.25;1.25;;;;;;;19.53;48.73;99753.59;5012360;28;20042;-63
2023/10/30 05:26:29;;;;;;;7.82;1.20;;;;;;;19.51;49.10;99749.41;5031861;28;20452;-62
2023/10/30 05:28:54;;;;;;;4.03;0.80;;;;;;;19.49;49.08;99751.47;5031833;28;20057;-62
2023/10/30 05:31:19;;;;;;;8.98;1.33;;;;;;;19.48;48.75;99750.69;5032983;28;20061;-63
2023/10/30 05:33:45;;;;;;;8.07;2.20;;;;;;;19.45;48.98;99739.38;5033007;28;20095;-62
2023/10/30 05:36:10;;;;;;;7.68;1.13;;;;;;;19.45;49.25;99742.09;5015239;28;20033;-63
2023/10/30 05:38:36;;;;;;;11.00;1.08;;;;;;;19.44;49.33;99737.72;5031704;28;20071;-63
2023/10/30 05:41:02;;;;;;;5.72;1.00;;;;;;;19.42;49.53;99737.09;5031880;28;20037;-62
2023/10/30 05:43:28;;;;;;;6.47;1.65;;;;;;;19.41;49.31;99732.69;5030875;28;20096;-62
2023/10/30 05:45:53;;;;;;;5.60;0.90;;;;;;;19.39;49.16;99729.38;5015127;28;20501;-62
2023/10/30 05:48:19;;;;;;;8.40;1.20;;;;;;;19.37;49.28;99731.44;5032769;28;20045;-62
2023/10/30 05:50:44;;;;;;;6.70;2.22;;;;;;;19.39;49.02;99740.25;5030411;28;20034;-62
2023/10/30 05:53:09;;;;;;;4.35;1.20;;;;;;;19.35;49.38;99728.94;5031652;28;20040;-62
2023/10/30 05:55:35;;;;;;;9.68;1.67;;;;;;;19.35;49.71;99736.22;5032802;28;20513;-62
2023/10/30 05:58:00;;;;;;;6.53;0.80;;;;;;;19.34;48.96;99737.31;5031604;28;20034;-63
2023/10/30 06:00:26;;;;;;;9.93;1.35;;;;;;;19.32;49.45;99742.13;5033466;28;20501;-62
2023/10/30 06:02:52;;;;;;;12.68;2.25;;;;;;;19.31;48.64;99735.00;5036383;28;20042;-63
2023/10/30 06:05:18;;;;;;;3.17;1.05;;;;;;;19.28;48.99;99743.56;5035474;28;20497;-63
2023/10/30 06:07:44;;;;;;;4.18;0.70;;;;;;;19.29;49.16;99756.13;5033781;28;20401;-63
2023/10/30 06:10:10;;;;;;;3.83;0.70;;;;;;;19.25;48.86;99754.84;5034381;28;20500;-62
2023/10/30 06:12:39;;;;;;;5.82;1.52;;;;;;;19.22;49.35;99753.41;5034370;28;20421;-62
2023/10/30 06:15:06;;;;;;;5.55;1.10;;;;;;;19.20;49.68;99747.34;5034215;28;20025;-63
2023/10/30 06:17:32;;;;;;;6.80;1.70;;;;;;;19.15;49.16;99747.97;5034176;28;20087;-63
2023/10/30 06:19:57;;;;;;;10.00;1.08;;;;;;;19.14;49.08;99751.75;5034129;28;20029;-62
2023/10/30 06:22:23;;;;;;;8.90;1.27;;;;;;;19.10;49.49;99742.34;5034430;28;20501;-62
2023/10/30 06:24:49;;;;;;;6.63;0.77;;;;;;;19.09;49.90;99739.84;5034715;28;20044;-62
2023/10/30 06:27:14;;;;;;;6.82;0.80;;;;;;;19.06;49.23;99746.53;5033957;28;20108;-63
2023/10/30 06:29:40;;;;;;;4.78;0.80;;;;;;;19.05;49.16;99744.88;5036235;28;20524;-62
2023/10/30 06:32:07;;;;;;;2.42;0.75;;;;;;;19.01;49.27;99743.59;5035697;28;20509;-63
2023/10/30 06:34:33;;;;;;;7.65;0.90;;;;;;;19.02;49.59;99750.72;5035456;28;20041;-62
2023/10/30 06:36:58;;;;;;;2.50;1.58;;;;;;;19.00;49.47;99763.66;5035602;28;20040;-62
2023/10/30 06:39:24;;;;;;;8.65;0.77;;;;;;;18.99;49.12;99767.41;5034798;28;20116;-63
2023/10/30 06:41:54;;;;;;;6.95;1.30;;;;;;;19.00;49.69;99757.38;5034156;28;20501;-62
2023/10/30 06:44:20;;;;;;;5.35;0.93;;;;;;;18.97;49.36;99753.22;5018189;28;20060;-62
2023/10/30 06:46:45;;;;;;;8.52;1.23;;;;;;;18.97;49.37;99747.78;5017679;28;20029;-62
2023/10/30 06:49:11;;;;;;;6.28;0.98;;;;;;;19.02;49.38;99750.72;5034134;28;20026;-63
2023/10/30 06:51:36;;;;;;;3.05;1.15;;;;;;;19.01;49.19;99757.16;5034892;28;20038;-62
2023/10/30 06:54:01;;;;;;;11.27;1.13;;;;;;;19.01;49.09;99757.16;5035494;28;20034;-62
2023/10/30 06:56:27;;;;;;;8.85;1.25;;;;;;;19.04;49.68;99769.47;5034933;28;20120;-62
2023/10/30 06:58:52;;;;;;;10.07;1.00;;;;;;;19.03;49.19;99767.84;5032304;28;20041;-64
2023/10/30 07:01:18;;;;;;;6.32;0.88;;;;;;;19.05;49.28;99774.72;5024728;28;20029;-65
2023/10/30 07:03:43;;;;;;;5.13;0.77;;;;;;;19.07;49.41;99758.22;4958049;28;1168423;-63
2023/10/30 07:06:11;;;;;;;12.52;1.05;;;;;;;19.10;49.16;99774.06;5015441;28;20037;-64
2023/10/30 07:08:37;;;;;;;4.25;1.17;;;;;;;19.14;48.82;99764.47;5015262;28;20030;-63
2023/10/30 07:11:02;;;;;;;6.63;1.00;;;;;;;19.18;49.15;99763.00;5015829;28;20025;-63
2023/10/30 07:13:28;;;;;;;7.03;0.70;;;;;;;19.24;48.70;99764.88;5014564;28;20041;-64
2023/10/30 07:15:53;;;;;;;4.07;0.85;;;;;;;19.31;48.83;99775.75;4998086;28;20030;-63
2023/10/30 07:18:18;;;;;;;2.15;1.00;;;;;;;19.37;48.60;99777.63;4998074;28;20037;-63
2023/10/30 07:20:44;;;;;;;3.33;1.48;;;;;;;19.41;49.17;99770.72;5014345;28;20026;-63
2023/10/30 07:23:09;;;;;;;6.82;0.80;;;;;;;19.47;48.76;99769.88;5013997;28;20030;-63
2023/10/30 07:25:35;;;;;;;7.53;0.98;;;;;;;19.50;48.84;99770.31;5014165;28;20014;-63
2023/10/30 07:28:00;;;;;;;5.20;0.95;;;;;;;19.53;49.39;99782.63;5014328;28;20025;-63
2023/10/30 07:30:26;;;;;;;6.35;0.95;;;;;;;19.58;48.72;99771.94;5015466;28;20022;-64
2023/10/30 07:32:52;;;;;;;10.93;1.17;;;;;;;19.63;48.73;99770.25;4997722;28;20022;-64
2023/10/30 07:35:17;;;;;;;5.10;1.27;;;;;;;19.73;49.04;99764.38;5014264;28;20028;-63
2023/10/30 07:37:42;;;;;;;9.40;1.42;;;;;;;19.83;48.96;99770.19;4998166;28;20021;-63
2023/10/30 07:40:08;;;;;;;9.80;1.10;;;;;;;19.86;48.97;99772.50;5013740;28;20026;-63
2023/10/30 07:42:34;;;;;;;8.30;0.80;;;;;;;19.95;48.61;99763.03;5015142;28;20033;-63
2023/10/30 07:44:59;;;;;;;4.38;1.02;;;;;;;20.06;48.78;99775.97;5014120;28;20021;-63
2023/10/30 07:47:25;;;;;;;1.70;0.50;;;;;;;20.12;49.00;99785.97;5015395;28;20022;-63
2023/10/30 07:49:50;;;;;;;2.78;0.85;;;;;;;20.20;48.49;99774.84;5013881;28;20366;-63
2023/10/30 07:52:16;;;;;;;6.55;1.10;;;;;;;20.32;48.52;99778.56;5013827;28;20026;-64
2023/10/30 07:54:41;;;;;;;5.00;0.85;;;;;;;20.38;48.38;99779.56;5029854;28;20018;-64
2023/10/30 07:57:08;;;;;;;1.83;0.75;;;;;;;20.37;48.12;99767.03;5033642;28;20025;-63
2023/10/30 07:59:35;;;;;;;3.03;0.60;;;;;;;20.37;48.35;99777.09;5035481;28;20014;-64
2023/10/30 08:02:00;;;;;;;3.15;0.70;;;;;;;20.42;49.18;99785.41;5034818;28;20030;-63
2023/10/30 08:04:26;;;;;;;5.60;1.05;;;;;;;20.46;48.71;99784.78;5035230;28;20045;-64
2023/10/30 08:06:51;;;;;;;1.95;0.60;;;;;;;20.53;49.17;99782.84;5034601;28;20108;-64
2023/10/30 08:09:17;;;;;;;4.57;1.33;;;;;;;20.60;48.83;99774.66;5035869;28;20048;-64
2023/10/30 08:11:42;;;;;;;2.38;0.73;;;;;;;20.65;48.16;99785.69;5035245;28;20056;-63
2023/10/30 08:14:08;;;;;;;4.13;0.70;;;;;;;20.66;47.95;99781.94;5034963;28;20381;-63
2023/10/30 08:16:34;;;;;;;5.28;0.85;;;;;;;20.65;48.20;99791.97;5034623;28;20052;-64
2023/10/30 08:19:00;;;;;;;3.28;0.50;;;;;;;20.67;48.41;99791.75;5034883;28;20029;-63
2023/10/30 08:21:25;;;;;;;3.78;0.60;;;;;;;20.66;48.82;99781.94;5034706;28;20466;-64
2023/10/30 08:23:51;;;;;;;5.80;1.00;;;;;;;20.71;48.57;99796.56;5033636;28;20038;-64
2023/10/30 08:26:16;;;;;;;2.90;0.63;;;;;;;20.75;48.59;99792.31;5034548;28;20033;-63
2023/10/30 08:28:44;;;;;;;2.97;0.38;;;;;;;20.82;48.49;99797.72;5034836;28;20542;-63
2023/10/30 08:31:10;;;;;;;4.15;0.70;;;;;;;20.91;48.48;99801.81;5034328;28;20029;-64
2023/10/30 08:33:35;;;;;;;8.90;1.98;;;;;;;20.95;48.65;99800.34;5032743;28;20393;-64
2023/10/30 08:36:00;;;;;;;5.50;1.52;;;;;;;21.02;47.91;99806.56;5034103;28;20029;-64
2023/10/30 08:38:26;;;;;;;7.63;1.52;;;;;;;21.04;48.05;99818.09;5032767;28;20041;-64
2023/10/30 08:40:51;;;;;;;4.30;0.82;;;;;;;21.06;47.79;99810.50;5033698;28;20030;-64
2023/10/30 08:43:16;;;;;;;5.13;0.82;;;;;;;21.11;48.74;99807.97;5032396;28;20040;-64
2023/10/30 08:45:42;;;;;;;2.00;1.63;;;;;;;21.14;48.16;99806.69;5032553;28;20026;-64
2023/10/30 08:48:07;;;;;;;5.53;1.30;;;;;;;21.18;48.30;99813.38;5032502;28;20044;-64
2023/10/30 08:50:32;;;;;;;7.03;1.23;;;;;;;21.17;48.58;99807.09;5032375;28;20033;-64
2023/10/30 08:52:58;;;;;;;6.53;1.08;;;;;;;21.15;47.97;99798.31;5032413;28;20048;-63
2023/10/30 08:55:23;;;;;;;6.28;1.15;;;;;;;21.17;47.81;99807.09;5033748;28;20036;-64
2023/10/30 08:57:48;;;;;;;2.05;0.88;;;;;;;21.21;47.70;99804.78;5015841;28;20036;-63
2023/10/30 09:00:14;;;;;;;3.63;0.70;;;;;;;21.28;47.41;99809.09;5033211;28;20030;-65
2023/10/30 09:02:39;;;;;;;6.88;1.38;;;;;;;21.35;48.58;99809.06;5033145;28;20125;-64
2023/10/30 09:05:05;;;;;;;5.20;1.30;;;;;;;21.39;47.73;99819.25;5032295;28;20105;-65
2023/10/30 09:07:31;;;;;;;4.43;0.70;;;;;;;21.45;48.19;99818.38;5032174;28;20033;-63
2023/10/30 09:09:57;;;;;;;2.90;0.80;;;;;;;21.48;47.42;99817.94;5032443;28;20030;-64
2023/10/30 09:12:22;;;;;;;11.02;2.20;;;;;;;21.53;47.81;99811.78;5032328;28;20030;-65
2023/10/30 09:14:47;;;;;;;9.68;0.93;;;;;;;21.56;48.37;99810.50;5033217;28;20029;-62
2023/10/30 09:17:13;;;;;;;6.60;0.85;;;;;;;21.57;47.53;99807.56;5033725;28;20053;-64
2023/10/30 09:19:38;;;;;;;6.75;0.80;;;;;;;21.59;48.05;99788.25;5033249;28;20029;-65
2023/10/30 09:22:04;;;;;;;1.23;0.50;;;;;;;21.63;47.33;99795.78;5015473;28;20161;-65
2023/10/30 09:24:30;;;;;;;3.63;0.65;;;;;;;21.66;47.81;99799.94;5014186;28;20049;-65
2023/10/30 09:26:55;;;;;;;5.97;0.65;;;;;;;21.68;47.17;99793.19;5031908;28;20501;-65
2023/10/30 09:29:20;;;;;;;1.80;0.57;;;;;;;21.72;47.13;99796.31;5033234;28;20049;-67
2023/10/30 09:31:46;;;;;;;6.03;2.03;;;;;;;21.76;47.96;99801.06;5031811;28;20026;-65
2023/10/30 09:34:11;;;;;;;6.78;0.85;;;;;;;21.79;47.58;99794.31;5032929;28;20033;-65
2023/10/30 09:36:36;;;;;;;7.40;0.90;;;;;;;21.89;47.36;99805.56;5015180;28;20033;-66
2023/10/30 09:39:02;;;;;;;5.05;0.73;;;;;;;22.01;47.87;99803.75;5032941;28;20159;-66
2023/10/30 09:41:28;;;;;;;3.58;0.50;;;;;;;22.10;47.77;99805.09;5015214;28;20052;-66
2023/10/30 09:43:54;;;;;;;9.80;0.95;;;;;;;22.22;46.57;99799.72;5032766;28;20037;-65
2023/10/30 09:46:25;;;;;;;4.30;0.85;;;;;;;22.29;46.45;99795.81;5031467;28;20036;-66
2023/10/30 09:48:51;;;;;;;6.07;1.17;;;;;;;22.32;46.91;99787.19;5032914;28;20041;-66
2023/10/30 09:51:17;;;;;;;4.90;0.93;;;;;;;22.36;47.26;99790.28;5031681;28;20401;-66
2023/10/30 09:53:42;;;;;;;7.25;1.10;;;;;;;22.36;47.02;99784.84;5014871;28;20036;-65
2023/10/30 09:56:08;;;;;;;2.55;0.88;;;;;;;22.36;47.39;99777.47;5031334;28;20033;-67
2023/10/30 09:58:35;;;;;;;5.57;1.10;;;;;;;22.41;47.01;99783.06;5031524;28;20048;-66
2023/10/30 10:01:00;;;;;;;2.13;0.85;;;;;;;22.43;46.35;99780.94;5031624;28;20040;-66
2023/10/30 10:03:26;;;;;;;5.65;1.10;;;;;;;22.44;47.04;99777.16;5031305;28;20033;-66
2023/10/30 10:05:59;;;;;;;4.38;1.00;;;;;;;22.45;47.40;99772.50;5014857;28;20394;-65
2023/10/30 10:08:25;;;;;;;2.92;0.90;;;;;;;22.46;47.36;99766.84;5031414;28;20056;-65
2023/10/30 10:11:01;;;;;;;3.50;1.35;;;;;;;22.45;46.90;99761.59;5031410;28;20088;-65
2023/10/30 10:13:31;;;;;;;2.00;0.65;;;;;;;22.48;46.69;99769.31;5031568;28;20037;-64
2023/10/30 10:15:56;;;;;;;2.60;0.93;;;;;;;22.47;46.54;99763.03;5031430;28;20081;-65
2023/10/30 10:18:29;;;;;;;5.15;2.70;;;;;;;22.49;46.49;99766.38;5014769;28;20030;-65
2023/10/30 10:21:03;;;;;;;2.85;0.68;;;;;;;22.47;46.53;99754.03;5032458;28;20034;-66
2023/10/30 10:23:33;;;;;;;6.07;0.70;;;;;;;22.45;46.15;99762.44;5032301;28;20041;-67
2023/10/30 10:26:05;;;;;;;8.85;1.08;;;;;;;22.43;46.85;99764.56;5015242;28;20528;-67
2023/10/30 10:28:31;;;;;;;9.50;1.27;;;;;;;22.43;46.78;99770.03;5032147;28;20574;-66
2023/10/30 10:30:57;;;;;;;2.13;0.60;;;;;;;22.42;46.13;99768.34;5031067;28;20401;-66
2023/10/30 10:33:24;;;;;;;2.83;0.38;;;;;;;22.39;46.91;99768.81;5031030;28;20486;-66
2023/10/30 10:35:54;;;;;;;6.15;0.68;;;;;;;22.37;46.84;99749.13;5031185;28;20049;-64
2023/10/30 10:38:21;;;;;;;3.63;0.70;;;;;;;22.37;45.83;99751.00;5032438;28;20034;-65
2023/10/30 10:40:47;;;;;;;2.75;0.50;;;;;;;22.33;45.88;99747.09;5014886;28;20401;-65
2023/10/30 10:43:15;;;;;;;5.55;0.98;;;;;;;22.31;46.81;99750.03;5031202;28;20025;-65
2023/10/30 10:45:41;;;;;;;3.92;0.45;;;;;;;22.27;46.33;99742.56;5032929;28;20409;-64
2023/10/30 10:48:07;;;;;;;3.38;0.50;;;;;;;22.25;46.40;99737.31;5018023;28;20034;-65
2023/10/30 10:50:34;;;;;;;5.10;0.88;;;;;;;22.25;46.84;99740.03;5034586;28;20417;-65
2023/10/30 10:53:01;;;;;;;5.20;0.82;;;;;;;22.21;45.86;99733.41;5035609;28;20188;-64
2023/10/30 10:55:27;;;;;;;1.55;0.60;;;;;;;22.19;45.80;99735.53;5034590;28;20041;-65
2023/10/30 10:58:07;;;;;;;5.22;0.90;;;;;;;22.14;46.07;99737.28;5034676;28;20044;-63
2023/10/30 11:00:37;;;;;;;9.48;1.10;;;;;;;22.11;45.92;99727.66;5034057;28;20041;-64
2023/10/30 11:03:05;;;;;;;3.13;0.95;;;;;;;22.12;46.37;99739.41;5035246;28;20552;-63
2023/10/30 11:05:33;;;;;;;6.22;1.38;;;;;;;22.12;46.00;99734.78;5034700;28;20064;-62
2023/10/30 11:08:10;;;;;;;4.05;0.40;;;;;;;22.16;46.80;99736.00;5018411;28;20500;-62
2023/10/30 11:10:41;;;;;;;2.13;0.88;;;;;;;22.14;45.96;99718.19;5035650;28;20092;-63
2023/10/30 11:13:10;;;;;;;2.15;1.02;;;;;;;22.13;46.95;99711.91;5035588;28;20108;-61
2023/10/30 11:15:45;;;;;;;4.22;1.15;;;;;;;22.11;46.85;99711.28;5034420;28;20033;-62
2023/10/30 11:18:24;;;;;;;4.40;0.40;;;;;;;22.08;46.80;99711.75;5034572;28;20032;-62
2023/10/30 11:21:07;;;;;;;1.25;0.30;;;;;;;22.05;46.92;99695.88;5035410;28;20041;-62
2023/10/30 11:23:45;;;;;;;0.63;0.50;;;;;;;22.00;45.93;99682.06;5034973;28;20037;-62
2023/10/30 11:26:30;;;;;;;1.10;0.43;;;;;;;21.99;46.17;99683.16;5035114;28;20041;-62